Time;durP1;ratioP1;P1;durP2;ratioP2;P2;SDS_P1;SDS_P2;PMS_P1;PMS_P2;Temp;Humidity;BMP_temperature;BMP_pressure;BME280_temperature;BME280_humidity;BME280_pressure;Samples;Min_cycle;Max_cycle;Signal;HPM_P1;HPM_P2
2023/11/21 00:00:14;;;;;;;2.28;1.38;;;;;;;;;;5094239;28;20445;-56
2023/11/21 00:02:41;;;;;;;1.88;1.20;;;;;;;;;;5093934;28;20119;-57
2023/11/21 00:05:09;;;;;;;1.25;1.08;;;;;;;;;;5091832;28;20089;-57
2023/11/21 00:07:37;;;;;;;3.33;0.95;;;;;;;;;;5088771;28;20596;-57
2023/11/21 00:10:08;;;;;;;2.40;1.10;;;;;;;;;;5088686;28;20080;-57
2023/11/21 00:12:35;;;;;;;1.15;0.85;;;;;;;;;;5088791;28;20046;-57
2023/11/21 00:15:02;;;;;;;8.00;3.50;;;;;;;;;;5090109;28;20012;-57
2023/11/21 00:17:29;;;;;;;2.90;1.70;;;;;;;;;;5094109;28;20031;-57
2023/11/21 00:19:55;;;;;;;4.45;2.22;;;;;;;;;;5093918;28;20028;-57
2023/11/21 00:22:22;;;;;;;3.63;2.55;;;;;;;;;;5093861;28;20393;-57
2023/11/21 00:24:49;;;;;;;7.43;3.13;;;;;;;;;;5093305;28;20119;-57
2023/11/21 00:27:15;;;;;;;3.60;1.77;;;;;;;;;;5092164;28;20074;-57
2023/11/21 00:29:42;;;;;;;3.10;1.90;;;;;;;;;;5088404;28;20425;-57
2023/11/21 00:32:09;;;;;;;2.90;1.15;;;;;;;;;;5088252;28;20093;-57
2023/11/21 00:34:35;;;;;;;3.38;1.30;;;;;;;;;;5088420;28;20034;-57
2023/11/21 00:37:02;;;;;;;4.10;1.77;;;;;;;;;;5088421;28;20115;-57
2023/11/21 00:39:29;;;;;;;1.13;1.00;;;;;;;;;;5092821;28;20035;-56
2023/11/21 00:41:56;;;;;;;1.75;1.10;;;;;;;;;;5093462;28;20069;-56
2023/11/21 00:44:22;;;;;;;1.27;1.05;;;;;;;;;;5093160;28;20119;-57
2023/11/21 00:46:50;;;;;;;1.30;0.98;;;;;;;;;;5093347;28;20483;-57
2023/11/21 00:49:17;;;;;;;2.75;1.27;;;;;;;;;;5092891;28;20024;-57
2023/11/21 00:51:54;;;;;;;4.38;1.67;;;;;;;;;;5087264;28;20032;-57
2023/11/21 00:54:20;;;;;;;1.83;1.00;;;;;;;;;;5087741;28;20118;-57
2023/11/21 00:56:48;;;;;;;1.65;1.10;;;;;;;;;;5087962;28;20032;-56
2023/11/21 00:59:14;;;;;;;1.48;1.10;;;;;;;;;;5087653;28;20054;-57
2023/11/21 01:01:41;;;;;;;2.00;1.33;;;;;;;;;;5093360;28;20161;-56
2023/11/21 01:04:08;;;;;;;1.70;1.08;;;;;;;;;;5093063;28;20545;-56
2023/11/21 01:06:34;;;;;;;1.42;1.02;;;;;;;;;;5093009;28;20028;-56
2023/11/21 01:09:01;;;;;;;1.20;0.80;;;;;;;;;;5074149;28;20158;-56
2023/11/21 01:11:28;;;;;;;4.10;1.57;;;;;;;;;;5092920;28;20024;-56
2023/11/21 01:13:54;;;;;;;2.63;1.17;;;;;;;;;;5087640;28;20081;-56
2023/11/21 01:16:21;;;;;;;1.93;1.30;;;;;;;;;;5087646;28;20419;-56
2023/11/21 01:18:47;;;;;;;1.43;0.97;;;;;;;;;;5087674;28;20105;-56
2023/11/21 01:21:14;;;;;;;0.83;0.73;;;;;;;;;;5087576;28;20078;-56
2023/11/21 01:23:41;;;;;;;2.30;1.37;;;;;;;;;;5091558;28;20114;-56
2023/11/21 01:26:08;;;;;;;29.17;2.00;;;;;;;;;;5092903;28;20016;-56
2023/11/21 01:28:40;;;;;;;2.57;1.60;;;;;;;;;;5092256;28;20359;-56
2023/11/21 01:31:07;;;;;;;1.07;0.87;;;;;;;;;;5092718;28;20038;-56
2023/11/21 01:33:33;;;;;;;1.40;0.97;;;;;;;;;;5092107;28;20126;-56
2023/11/21 01:36:00;;;;;;;1.30;0.90;;;;;;;;;;5087993;28;20107;-57
2023/11/21 01:38:27;;;;;;;1.07;0.87;;;;;;;;;;5087583;28;20028;-57
2023/11/21 01:40:53;;;;;;;1.47;1.13;;;;;;;;;;5087704;28;20413;-57
2023/11/21 01:43:20;;;;;;;1.10;0.80;;;;;;;;;;5087117;28;20032;-56
2023/11/21 01:45:47;;;;;;;1.50;1.03;;;;;;;;;;5090532;28;20024;-56
2023/11/21 01:48:16;;;;;;;2.00;1.20;;;;;;;;;;5090845;28;20016;-56
2023/11/21 01:50:43;;;;;;;2.73;0.93;;;;;;;;;;5092173;28;20039;-57
2023/11/21 01:53:09;;;;;;;1.67;0.97;;;;;;;;;;5092333;28;20097;-57
2023/11/21 01:55:36;;;;;;;1.60;0.93;;;;;;;;;;5092568;28;20038;-56
2023/11/21 01:58:03;;;;;;;1.83;1.03;;;;;;;;;;5088708;28;21175;-57
2023/11/21 02:00:29;;;;;;;8.80;1.50;;;;;;;;;;5087293;28;20048;-57
2023/11/21 02:02:56;;;;;;;2.77;1.20;;;;;;;;;;5086944;28;20051;-57
2023/11/21 02:05:23;;;;;;;4.00;1.73;;;;;;;;;;5086931;28;20032;-57
2023/11/21 02:07:52;;;;;;;1.97;1.30;;;;;;;;;;5088294;28;20032;-56
2023/11/21 02:10:22;;;;;;;2.10;1.37;;;;;;;;;;5092179;28;20106;-56
2023/11/21 02:12:52;;;;;;;2.33;1.43;;;;;;;;;;5091877;28;20059;-57
2023/11/21 02:15:26;;;;;;;2.70;1.53;;;;;;;;;;5091949;28;20445;-57
2023/11/21 02:17:53;;;;;;;1.95;1.33;;;;;;;;;;5091977;28;20435;-57
2023/11/21 02:20:24;;;;;;;2.83;1.63;;;;;;;;;;5089091;28;20036;-57
2023/11/21 02:22:55;;;;;;;19.90;1.83;;;;;;;;;;5086709;28;20040;-57
2023/11/21 02:25:22;;;;;;;1.13;0.90;;;;;;;;;;5086774;28;20542;-56
2023/11/21 02:27:49;;;;;;;1.63;1.23;;;;;;;;;;5086879;28;20048;-57
2023/11/21 02:30:16;;;;;;;1.87;1.10;;;;;;;;;;5088638;28;20067;-57
2023/11/21 02:32:43;;;;;;;2.20;1.43;;;;;;;;;;5091669;28;20021;-56
2023/11/21 02:35:12;;;;;;;2.17;1.40;;;;;;;;;;5091615;28;20020;-57
2023/11/21 02:37:38;;;;;;;2.33;1.07;;;;;;;;;;5091223;28;20036;-56
2023/11/21 02:40:06;;;;;;;4.03;1.60;;;;;;;;;;5090906;28;20440;-57
2023/11/21 02:42:32;;;;;;;2.87;1.50;;;;;;;;;;5088819;28;20032;-57
2023/11/21 02:44:59;;;;;;;2.67;1.70;;;;;;;;;;5086409;28;20044;-56
2023/11/21 02:47:26;;;;;;;2.33;1.20;;;;;;;;;;5090473;28;20024;-57
2023/11/21 02:49:52;;;;;;;1.57;1.03;;;;;;;;;;5089826;28;20028;-56
2023/11/21 02:52:19;;;;;;;1.53;1.03;;;;;;;;;;5092200;28;20478;-56
2023/11/21 02:54:46;;;;;;;5.63;2.10;;;;;;;;;;5095270;28;20028;-57
2023/11/21 02:57:13;;;;;;;2.57;1.57;;;;;;;;;;5094546;28;20020;-57
2023/11/21 02:59:40;;;;;;;3.07;1.30;;;;;;;;;;5094495;28;20036;-56
2023/11/21 03:02:08;;;;;;;2.47;1.70;;;;;;;;;;5095280;28;20690;-56
2023/11/21 03:04:35;;;;;;;2.77;1.53;;;;;;;;;;5093712;28;20475;-57
2023/11/21 03:07:01;;;;;;;4.10;1.60;;;;;;;;;;5089964;28;20020;-56
2023/11/21 03:09:28;;;;;;;2.27;1.57;;;;;;;;;;5090106;28;20491;-56
2023/11/21 03:11:55;;;;;;;2.27;1.63;;;;;;;;;;5089421;28;20028;-56
2023/11/21 03:14:22;;;;;;;3.00;1.90;;;;;;;;;;5090577;28;20024;-56
2023/11/21 03:16:49;;;;;;;4.03;2.07;;;;;;;;;;5094199;28;20082;-56
2023/11/21 03:19:16;;;;;;;2.20;1.30;;;;;;;;;;5094334;28;20451;-56
2023/11/21 03:21:42;;;;;;;10.57;1.63;;;;;;;;;;5095212;28;20677;-56
2023/11/21 03:24:09;;;;;;;3.63;1.53;;;;;;;;;;5094978;28;20510;-56
2023/11/21 03:26:37;;;;;;;1.67;1.33;;;;;;;;;;5093583;28;20031;-57
2023/11/21 03:29:04;;;;;;;2.70;1.77;;;;;;;;;;5069289;28;20033;-56
2023/11/21 03:31:31;;;;;;;2.73;1.83;;;;;;;;;;5069634;28;20107;-56
2023/11/21 03:33:58;;;;;;;2.93;1.50;;;;;;;;;;5089120;28;20032;-56
2023/11/21 03:36:25;;;;;;;3.93;1.90;;;;;;;;;;5088955;28;20017;-56
2023/11/21 03:38:51;;;;;;;1.20;0.87;;;;;;;;;;5094349;28;20035;-56
2023/11/21 03:41:18;;;;;;;2.50;1.67;;;;;;;;;;5094368;28;20470;-56
2023/11/21 03:43:45;;;;;;;10.37;1.50;;;;;;;;;;5094265;28;20497;-57
2023/11/21 03:46:12;;;;;;;4.17;2.00;;;;;;;;;;5094712;28;20095;-56
2023/11/21 03:48:39;;;;;;;3.43;1.73;;;;;;;;;;5093851;28;20069;-57
2023/11/21 03:51:05;;;;;;;2.60;1.63;;;;;;;;;;5089442;28;20024;-57
2023/11/21 03:53:32;;;;;;;3.93;1.80;;;;;;;;;;5089174;28;20111;-56
2023/11/21 03:55:59;;;;;;;2.17;1.33;;;;;;;;;;5088194;28;20052;-56
2023/11/21 03:58:26;;;;;;;7.23;1.40;;;;;;;;;;5088038;28;20051;-56
2023/11/21 04:00:53;;;;;;;18.57;1.90;;;;;;;;;;5093022;28;20470;-56
2023/11/21 04:03:20;;;;;;;2.77;1.93;;;;;;;;;;5093995;28;20378;-56
2023/11/21 04:05:47;;;;;;;1.37;1.03;;;;;;;;;;5093866;28;20024;-56
2023/11/21 04:08:14;;;;;;;3.77;1.73;;;;;;;;;;5073755;28;20086;-56
2023/11/21 04:10:41;;;;;;;10.83;2.10;;;;;;;;;;5091449;28;20020;-56
2023/11/21 04:13:08;;;;;;;2.87;1.47;;;;;;;;;;5089756;28;20039;-56
2023/11/21 04:15:35;;;;;;;0.83;0.80;;;;;;;;;;5089141;28;20024;-56
2023/11/21 04:18:01;;;;;;;2.83;1.80;;;;;;;;;;5088805;28;20070;-56
2023/11/21 04:20:28;;;;;;;2.43;1.60;;;;;;;;;;5088629;28;20020;-56
2023/11/21 04:22:55;;;;;;;2.00;1.37;;;;;;;;;;5091219;28;20027;-56
2023/11/21 04:25:23;;;;;;;3.97;1.60;;;;;;;;;;5093585;28;20059;-56
2023/11/21 04:27:50;;;;;;;3.13;1.87;;;;;;;;;;5093144;28;20039;-56
2023/11/21 04:30:16;;;;;;;4.17;1.80;;;;;;;;;;5093709;28;20028;-56
2023/11/21 04:32:43;;;;;;;2.93;1.63;;;;;;;;;;5093524;28;20024;-56
2023/11/21 04:35:10;;;;;;;4.87;1.77;;;;;;;;;;5090802;28;20047;-56
2023/11/21 04:37:37;;;;;;;2.50;1.60;;;;;;;;;;5088019;28;20036;-56
2023/11/21 04:40:06;;;;;;;1.13;1.00;;;;;;;;;;5088424;28;20021;-56
2023/11/21 04:42:35;;;;;;;2.40;1.53;;;;;;;;;;5087658;28;20064;-56
2023/11/21 04:45:05;;;;;;;3.10;1.80;;;;;;;;;;5090129;28;20048;-56
2023/11/21 04:47:31;;;;;;;4.23;2.13;;;;;;;;;;5093285;28;20100;-56
2023/11/21 04:49:58;;;;;;;6.77;2.23;;;;;;;;;;5093279;28;20034;-56
2023/11/21 04:52:24;;;;;;;2.33;1.73;;;;;;;;;;5093446;28;20027;-56
2023/11/21 04:54:54;;;;;;;2.27;1.47;;;;;;;;;;5093338;28;20090;-56
2023/11/21 04:57:21;;;;;;;2.23;1.50;;;;;;;;;;5090386;28;20073;-56
2023/11/21 04:59:50;;;;;;;9.17;1.73;;;;;;;;;;5087916;28;20371;-56
2023/11/21 05:02:19;;;;;;;5.03;2.37;;;;;;;;;;5087616;28;20032;-56
2023/11/21 05:04:46;;;;;;;2.57;1.67;;;;;;;;;;5088138;28;20046;-56
2023/11/21 05:07:13;;;;;;;2.77;1.80;;;;;;;;;;5089152;28;20050;-56
2023/11/21 05:09:46;;;;;;;2.23;1.60;;;;;;;;;;5092309;28;20035;-56
2023/11/21 05:12:14;;;;;;;4.33;2.30;;;;;;;;;;5092748;28;20480;-56
2023/11/21 05:14:41;;;;;;;2.67;1.47;;;;;;;;;;5092968;28;20471;-56
2023/11/21 05:17:08;;;;;;;7.83;1.63;;;;;;;;;;5092675;28;20020;-56
2023/11/21 05:19:35;;;;;;;3.37;1.80;;;;;;;;;;5090980;28;20039;-56
2023/11/21 05:22:02;;;;;;;3.67;1.23;;;;;;;;;;5087205;28;20064;-56
2023/11/21 05:24:28;;;;;;;3.33;1.60;;;;;;;;;;5087005;28;20066;-56
2023/11/21 05:26:55;;;;;;;1.83;1.27;;;;;;;;;;5087696;28;20028;-56
2023/11/21 05:29:22;;;;;;;1.20;0.93;;;;;;;;;;5088481;28;20039;-56
2023/11/21 05:31:49;;;;;;;1.40;1.10;;;;;;;;;;5092660;28;20027;-56
2023/11/21 05:34:16;;;;;;;1.73;1.27;;;;;;;;;;5092604;28;20493;-56
2023/11/21 05:36:45;;;;;;;1.07;0.80;;;;;;;;;;5092359;28;20050;-56
2023/11/21 05:39:12;;;;;;;2.43;1.50;;;;;;;;;;5092700;28;20506;-56
2023/11/21 05:41:39;;;;;;;4.17;1.50;;;;;;;;;;5091313;28;20020;-57
2023/11/21 05:44:05;;;;;;;1.43;1.20;;;;;;;;;;5086847;28;20535;-56
2023/11/21 05:46:32;;;;;;;3.77;1.27;;;;;;;;;;5084001;28;20032;-56
2023/11/21 05:48:59;;;;;;;2.23;1.63;;;;;;;;;;5086200;28;20474;-56
2023/11/21 05:51:26;;;;;;;1.90;1.40;;;;;;;;;;5086980;28;20024;-56
2023/11/21 05:53:52;;;;;;;2.73;1.60;;;;;;;;;;5092341;28;20403;-56
2023/11/21 05:56:19;;;;;;;0.77;0.73;;;;;;;;;;5092388;28;20524;-56
2023/11/21 05:58:45;;;;;;;2.30;1.77;;;;;;;;;;5092079;28;20027;-56
2023/11/21 06:01:13;;;;;;;1.90;1.40;;;;;;;;;;5091778;28;20173;-56
2023/11/21 06:03:39;;;;;;;3.17;1.70;;;;;;;;;;5091608;28;20038;-56
2023/11/21 06:06:06;;;;;;;1.57;1.17;;;;;;;;;;5087073;28;20110;-56
2023/11/21 06:08:33;;;;;;;2.20;1.57;;;;;;;;;;5068790;28;20056;-56
2023/11/21 06:11:00;;;;;;;1.63;1.30;;;;;;;;;;5087202;28;20035;-56
2023/11/21 06:13:27;;;;;;;2.33;1.50;;;;;;;;;;5086499;28;20039;-56
2023/11/21 06:15:54;;;;;;;2.13;1.50;;;;;;;;;;5091157;28;20028;-55
2023/11/21 06:18:21;;;;;;;4.10;2.17;;;;;;;;;;5092001;28;20532;-55
2023/11/21 06:20:48;;;;;;;0.70;0.70;;;;;;;;;;5094532;28;20062;-56
2023/11/21 06:23:16;;;;;;;4.10;1.80;;;;;;;;;;5095929;28;20036;-55
2023/11/21 06:25:42;;;;;;;1.63;1.13;;;;;;;;;;5095918;28;20063;-56
2023/11/21 06:28:10;;;;;;;3.10;1.50;;;;;;;;;;5089527;28;20418;-56
2023/11/21 06:30:36;;;;;;;2.03;1.50;;;;;;;;;;5079030;28;20028;-55
2023/11/21 06:33:03;;;;;;;2.00;1.57;;;;;;;;;;5090428;28;20024;-56
2023/11/21 06:35:33;;;;;;;3.67;1.77;;;;;;;;;;5090841;28;20028;-56
2023/11/21 06:38:03;;;;;;;1.63;1.10;;;;;;;;;;5094491;28;20039;-56
2023/11/21 06:40:29;;;;;;;2.93;1.83;;;;;;;;;;5095914;28;20024;-55
2023/11/21 06:42:58;;;;;;;1.87;1.30;;;;;;;;;;5095243;28;20537;-56
2023/11/21 06:45:25;;;;;;;2.20;1.63;;;;;;;;;;5095650;28;20371;-56
2023/11/21 06:47:51;;;;;;;1.60;1.20;;;;;;;;;;5079970;28;20056;-56
2023/11/21 06:50:18;;;;;;;2.13;1.53;;;;;;;;;;5072034;28;20455;-56
2023/11/21 06:52:45;;;;;;;3.60;1.70;;;;;;;;;;5070808;28;20028;-56
2023/11/21 06:55:11;;;;;;;3.17;1.53;;;;;;;;;;5070641;28;20032;-55
2023/11/21 06:57:38;;;;;;;6.87;1.77;;;;;;;;;;5072404;28;20031;-55
2023/11/21 07:00:06;;;;;;;1.43;1.10;;;;;;;;;;5093247;28;20028;-56
2023/11/21 07:02:33;;;;;;;1.37;0.97;;;;;;;;;;5095558;28;20031;-56
2023/11/21 07:04:59;;;;;;;2.37;1.70;;;;;;;;;;5095479;28;20425;-56
2023/11/21 07:07:26;;;;;;;2.23;1.40;;;;;;;;;;5095395;28;20028;-55
2023/11/21 07:09:53;;;;;;;2.27;1.50;;;;;;;;;;5095488;28;20016;-55
2023/11/21 07:12:23;;;;;;;1.27;1.07;;;;;;;;;;5092657;28;20502;-56
2023/11/21 07:14:50;;;;;;;3.40;1.83;;;;;;;;;;5089936;28;20051;-55
2023/11/21 07:17:17;;;;;;;2.90;1.90;;;;;;;;;;5090416;28;20031;-56
2023/11/21 07:19:44;;;;;;;1.40;1.13;;;;;;;;;;5090353;28;20064;-55
2023/11/21 07:22:10;;;;;;;3.07;1.10;;;;;;;;;;5075920;28;20550;-56
2023/11/21 07:24:37;;;;;;;3.77;1.97;;;;;;;;;;5095036;28;20386;-55
2023/11/21 07:27:04;;;;;;;1.87;1.40;;;;;;;;;;5095016;28;20082;-55
2023/11/21 07:29:31;;;;;;;4.57;1.47;;;;;;;;;;5095079;28;20031;-55
2023/11/21 07:31:57;;;;;;;1.73;1.50;;;;;;;;;;5094108;28;20505;-55
2023/11/21 07:34:24;;;;;;;3.97;2.13;;;;;;;;;;5092625;28;20095;-56
2023/11/21 07:36:51;;;;;;;3.17;1.90;;;;;;;;;;5089545;28;20064;-56
2023/11/21 07:39:18;;;;;;;2.03;1.57;;;;;;;;;;5090144;28;20548;-56
2023/11/21 07:41:48;;;;;;;1.77;1.33;;;;;;;;;;5089843;28;20016;-56
2023/11/21 07:44:15;;;;;;;2.00;1.20;;;;;;;;;;5090889;28;20043;-56
2023/11/21 07:46:42;;;;;;;2.50;1.60;;;;;;;;;;5094820;28;20028;-56
2023/11/21 07:49:09;;;;;;;3.27;1.53;;;;;;;;;;5094427;28;20032;-56
2023/11/21 07:51:35;;;;;;;2.37;1.67;;;;;;;;;;5094738;28;20351;-55
2023/11/21 07:54:02;;;;;;;2.03;1.50;;;;;;;;;;5094514;28;20027;-56
2023/11/21 07:56:29;;;;;;;4.43;1.90;;;;;;;;;;5093237;28;20032;-55
2023/11/21 07:58:56;;;;;;;2.67;1.70;;;;;;;;;;5089654;28;20021;-55
2023/11/21 08:01:23;;;;;;;12.97;1.60;;;;;;;;;;5089507;28;20444;-55
2023/11/21 08:03:52;;;;;;;1.50;1.10;;;;;;;;;;5089368;28;20084;-56
2023/11/21 08:06:19;;;;;;;2.57;1.13;;;;;;;;;;5089862;28;20056;-55
2023/11/21 08:08:46;;;;;;;1.87;1.37;;;;;;;;;;5094248;28;20028;-55
2023/11/21 08:11:12;;;;;;;2.83;1.80;;;;;;;;;;5093528;28;20024;-56
2023/11/21 08:13:39;;;;;;;3.10;1.93;;;;;;;;;;5076075;28;20032;-55
2023/11/21 08:16:07;;;;;;;2.37;1.63;;;;;;;;;;5094061;28;20561;-55
2023/11/21 08:18:40;;;;;;;1.37;1.17;;;;;;;;;;5093391;28;20447;-56
2023/11/21 08:21:10;;;;;;;2.87;1.60;;;;;;;;;;5088994;28;20028;-55
2023/11/21 08:23:45;;;;;;;2.17;1.30;;;;;;;;;;5089022;28;20044;-55
2023/11/21 08:26:13;;;;;;;7.57;2.05;;;;;;;;;;5088638;28;20105;-55
2023/11/21 08:28:40;;;;;;;2.87;1.10;;;;;;;;;;5089400;28;20486;-55
2023/11/21 08:31:07;;;;;;;1.57;1.27;;;;;;;;;;5093933;28;20024;-55
2023/11/21 08:33:33;;;;;;;1.37;0.97;;;;;;;;;;5093740;28;20031;-55
2023/11/21 08:36:01;;;;;;;1.87;1.30;;;;;;;;;;5093832;28;20027;-55
2023/11/21 08:38:28;;;;;;;2.67;1.57;;;;;;;;;;5093876;28;20099;-55
2023/11/21 08:40:55;;;;;;;2.90;1.70;;;;;;;;;;5092810;28;20102;-55
2023/11/21 08:43:22;;;;;;;3.37;2.00;;;;;;;;;;5086976;28;20545;-56
2023/11/21 08:45:48;;;;;;;3.63;2.10;;;;;;;;;;5088660;28;20031;-55
2023/11/21 08:48:15;;;;;;;4.07;2.40;;;;;;;;;;5077830;28;20059;-55
2023/11/21 08:50:42;;;;;;;3.43;2.33;;;;;;;;;;5068218;28;20117;-55
2023/11/21 08:53:10;;;;;;;5.77;1.57;;;;;;;;;;5072904;28;20021;-55
2023/11/21 08:55:37;;;;;;;2.37;1.80;;;;;;;;;;5078017;28;20068;-55
2023/11/21 08:58:05;;;;;;;2.77;1.73;;;;;;;;;;5093383;28;20030;-55
2023/11/21 09:00:33;;;;;;;2.07;1.40;;;;;;;;;;5093352;28;20030;-55
2023/11/21 09:02:59;;;;;;;2.87;1.90;;;;;;;;;;5093247;28;20429;-55
2023/11/21 09:05:26;;;;;;;5.47;2.00;;;;;;;;;;5088295;28;20074;-55
2023/11/21 09:07:53;;;;;;;5.23;1.73;;;;;;;;;;5088133;28;20031;-56
2023/11/21 09:10:20;;;;;;;1.93;1.50;;;;;;;;;;5088185;28;20169;-55
2023/11/21 09:12:47;;;;;;;1.73;1.10;;;;;;;;;;5087978;28;20036;-55
2023/11/21 09:15:14;;;;;;;1.70;1.47;;;;;;;;;;5091968;28;20030;-55
2023/11/21 09:17:42;;;;;;;8.93;1.37;;;;;;;;;;5093019;28;20479;-55
2023/11/21 09:20:10;;;;;;;3.67;1.90;;;;;;;;;;5092421;28;20020;-55
2023/11/21 09:22:36;;;;;;;3.27;1.37;;;;;;;;;;5092386;28;20483;-55
2023/11/21 09:25:08;;;;;;;2.37;1.87;;;;;;;;;;5092819;28;20036;-55
2023/11/21 09:27:35;;;;;;;8.03;1.80;;;;;;;;;;5088481;28;20516;-57
2023/11/21 09:30:05;;;;;;;2.87;1.70;;;;;;;;;;5088050;28;20031;-55
2023/11/21 09:32:32;;;;;;;2.10;1.50;;;;;;;;;;5087752;28;20028;-56
2023/11/21 09:34:58;;;;;;;2.17;1.50;;;;;;;;;;5087667;28;20016;-55
2023/11/21 09:37:26;;;;;;;3.53;2.23;;;;;;;;;;5090886;28;20020;-55
2023/11/21 09:39:53;;;;;;;5.73;3.33;;;;;;;;;;5092646;28;20082;-55
2023/11/21 09:42:33;;;;;;;4.63;2.80;;;;;;;;;;5092471;28;20421;-55
2023/11/21 09:45:13;;;;;;;4.90;2.67;;;;;;;;;;5092500;28;20372;-55
2023/11/21 09:47:40;;;;;;;3.03;2.00;;;;;;;;;;5092071;28;20028;-55
2023/11/21 09:50:10;;;;;;;3.10;2.23;;;;;;;;;;5087608;28;20036;-55
2023/11/21 09:52:44;;;;;;;4.73;2.20;;;;;;;;;;5087104;28;20557;-55
2023/11/21 09:55:15;;;;;;;3.00;2.07;;;;;;;;;;5087287;28;20028;-55
2023/11/21 09:57:42;;;;;;;2.90;2.20;;;;;;;;;;5087521;28;20296;-56
2023/11/21 10:00:11;;;;;;;5.23;2.30;;;;;;;;;;5091656;28;20403;-55
2023/11/21 10:02:40;;;;;;;4.03;2.50;;;;;;;;;;5092095;28;20445;-55
2023/11/21 10:05:09;;;;;;;3.30;2.43;;;;;;;;;;5092089;28;20398;-55
2023/11/21 10:07:36;;;;;;;3.70;2.60;;;;;;;;;;5092348;28;20063;-55
2023/11/21 10:10:03;;;;;;;5.70;2.60;;;;;;;;;;5092165;28;20024;-55
2023/11/21 10:12:29;;;;;;;3.83;2.53;;;;;;;;;;5087577;28;20032;-55
2023/11/21 10:14:57;;;;;;;3.93;2.43;;;;;;;;;;5087350;28;20036;-55
2023/11/21 10:17:27;;;;;;;4.93;1.83;;;;;;;;;;5086987;28;20081;-55
2023/11/21 10:19:55;;;;;;;4.87;2.93;;;;;;;;;;5087277;28;20085;-55
2023/11/21 10:22:23;;;;;;;4.50;2.50;;;;;;;;;;5090941;28;20040;-55
2023/11/21 10:24:51;;;;;;;4.27;2.33;;;;;;;;;;5091937;28;20078;-55
2023/11/21 10:27:38;;;;;;;3.17;2.23;;;;;;;;;;5091837;28;20435;-55
2023/11/21 10:30:05;;;;;;;5.57;2.50;;;;;;;;;;5091513;28;20355;-55
2023/11/21 10:32:32;;;;;;;4.57;2.23;;;;;;;;;;5091962;28;20024;-55
2023/11/21 10:35:06;;;;;;;4.97;2.17;;;;;;;;;;5087394;28;20348;-55
2023/11/21 10:37:33;;;;;;;1.90;1.50;;;;;;;;;;5087088;28;20032;-55
2023/11/21 10:40:00;;;;;;;6.33;2.80;;;;;;;;;;5087049;28;20024;-56
2023/11/21 10:42:27;;;;;;;3.43;2.27;;;;;;;;;;5086833;28;20375;-55
2023/11/21 10:44:54;;;;;;;3.63;2.23;;;;;;;;;;5089613;28;20070;-55
2023/11/21 10:47:22;;;;;;;3.37;2.30;;;;;;;;;;5088466;28;20074;-54
2023/11/21 10:49:55;;;;;;;3.67;2.30;;;;;;;;;;5071712;28;20025;-55
2023/11/21 10:52:22;;;;;;;2.00;1.60;;;;;;;;;;5071767;28;20082;-55
2023/11/21 10:54:49;;;;;;;3.13;2.00;;;;;;;;;;5071634;28;20056;-55
2023/11/21 10:57:19;;;;;;;4.27;2.00;;;;;;;;;;5067274;28;20021;-55
2023/11/21 10:59:49;;;;;;;7.13;2.13;;;;;;;;;;5066821;28;20394;-55
2023/11/21 11:02:27;;;;;;;6.93;2.87;;;;;;;;;;5083962;28;20028;-55
2023/11/21 11:04:57;;;;;;;2.87;1.93;;;;;;;;;;5086660;28;20042;-55
2023/11/21 11:07:28;;;;;;;5.23;2.13;;;;;;;;;;5092539;28;20104;-55
2023/11/21 11:10:00;;;;;;;2.37;1.70;;;;;;;;;;5095550;28;20030;-55
2023/11/21 11:12:28;;;;;;;4.20;2.17;;;;;;;;;;5095476;28;20028;-55
2023/11/21 11:14:56;;;;;;;5.20;2.33;;;;;;;;;;5095239;28;20032;-55
2023/11/21 11:17:23;;;;;;;4.27;2.23;;;;;;;;;;5095502;28;20024;-55
2023/11/21 11:19:50;;;;;;;1.93;1.40;;;;;;;;;;5090169;28;20028;-55
2023/11/21 11:22:19;;;;;;;2.67;1.97;;;;;;;;;;5090466;28;20030;-55
2023/11/21 11:25:15;;;;;;;3.03;2.07;;;;;;;;;;5089931;28;20059;-55
2023/11/21 11:27:49;;;;;;;2.10;1.58;;;;;;;;;;5090327;28;20031;-55
2023/11/21 11:30:22;;;;;;;6.93;1.98;;;;;;;;;;5095193;28;20042;-55
2023/11/21 11:32:59;;;;;;;3.73;2.47;;;;;;;;;;5094973;28;20032;-55
2023/11/21 11:35:39;;;;;;;3.73;2.30;;;;;;;;;;5094479;28;20474;-55
2023/11/21 11:38:06;;;;;;;1.90;1.53;;;;;;;;;;5094910;28;20177;-55
2023/11/21 11:40:45;;;;;;;3.67;1.93;;;;;;;;;;5093600;28;20056;-55
2023/11/21 11:43:12;;;;;;;5.23;2.13;;;;;;;;;;5071916;28;20036;-55
2023/11/21 11:45:42;;;;;;;2.40;1.63;;;;;;;;;;5089836;28;20028;-55
2023/11/21 11:48:14;;;;;;;2.97;1.67;;;;;;;;;;5089866;28;20042;-55
2023/11/21 11:50:43;;;;;;;3.10;2.43;;;;;;;;;;5090805;28;21338;-55
2023/11/21 11:53:13;;;;;;;4.47;2.60;;;;;;;;;;5094425;28;20028;-55
2023/11/21 11:55:40;;;;;;;2.73;2.20;;;;;;;;;;5094571;28;20474;-55
2023/11/21 11:58:07;;;;;;;3.57;2.70;;;;;;;;;;5094168;28;20419;-55
2023/11/21 12:00:39;;;;;;;4.07;2.50;;;;;;;;;;5094445;28;20463;-55
2023/11/21 12:03:07;;;;;;;4.13;2.57;;;;;;;;;;5092649;28;20059;-55
2023/11/21 12:05:38;;;;;;;3.47;2.60;;;;;;;;;;5089233;28;20032;-55
2023/11/21 12:08:06;;;;;;;2.20;1.87;;;;;;;;;;5086597;28;20356;-55
2023/11/21 12:10:37;;;;;;;7.53;2.30;;;;;;;;;;5085883;28;20032;-55
2023/11/21 12:13:07;;;;;;;2.90;2.10;;;;;;;;;;5090497;28;20012;-55
2023/11/21 12:15:38;;;;;;;5.13;2.57;;;;;;;;;;5093903;28;20020;-55
2023/11/21 12:18:05;;;;;;;6.50;3.83;;;;;;;;;;5093787;28;20024;-55
2023/11/21 12:20:32;;;;;;;6.67;3.67;;;;;;;;;;5093901;28;20036;-55
2023/11/21 12:23:00;;;;;;;3.00;2.40;;;;;;;;;;5092095;28;20035;-55
2023/11/21 12:25:34;;;;;;;5.63;3.13;;;;;;;;;;5074847;28;20236;-55
2023/11/21 12:28:02;;;;;;;6.13;3.47;;;;;;;;;;5068438;28;20039;-55
2023/11/21 12:30:33;;;;;;;6.33;2.73;;;;;;;;;;5068092;28;20108;-55
2023/11/21 12:33:00;;;;;;;5.37;2.70;;;;;;;;;;5068379;28;20028;-55
2023/11/21 12:35:33;;;;;;;3.07;2.60;;;;;;;;;;5069410;28;20059;-55
2023/11/21 12:38:02;;;;;;;2.67;2.43;;;;;;;;;;5075947;28;20051;-55
2023/11/21 12:40:29;;;;;;;5.10;3.20;;;;;;;;;;5093359;28;20028;-55
2023/11/21 12:42:57;;;;;;;13.17;2.87;;;;;;;;;;5093787;28;20024;-55
2023/11/21 12:45:27;;;;;;;3.53;2.73;;;;;;;;;;5074791;28;20386;-55
2023/11/21 12:48:07;;;;;;;5.53;3.50;;;;;;;;;;5091774;28;20101;-55
2023/11/21 12:50:36;;;;;;;2.73;2.23;;;;;;;;;;5067994;28;20033;-55
2023/11/21 12:53:05;;;;;;;4.30;2.67;;;;;;;;;;5068080;28;20021;-55
2023/11/21 12:55:39;;;;;;;3.53;2.80;;;;;;;;;;5067744;28;20085;-55
2023/11/21 12:58:10;;;;;;;5.15;3.20;;;;;;;;;;5069683;28;20127;-55
2023/11/21 13:00:41;;;;;;;4.43;2.97;;;;;;;;;;5073092;28;20082;-55
2023/11/21 13:03:12;;;;;;;4.27;2.63;;;;;;;;;;5072875;28;20023;-55
2023/11/21 13:05:39;;;;;;;5.33;2.90;;;;;;;;;;5072787;28;20127;-55
2023/11/21 13:08:08;;;;;;;5.30;3.23;;;;;;;;;;5072925;28;20032;-55
2023/11/21 13:10:36;;;;;;;5.33;2.30;;;;;;;;;;5069655;28;20024;-55
2023/11/21 13:13:05;;;;;;;5.27;3.00;;;;;;;;;;5074841;28;20347;-54
2023/11/21 13:15:32;;;;;;;8.80;3.23;;;;;;;;;;5087620;28;20024;-55
2023/11/21 13:17:59;;;;;;;3.33;2.43;;;;;;;;;;5087750;28;20035;-55
2023/11/21 13:20:26;;;;;;;6.13;3.00;;;;;;;;;;5089457;28;20027;-55
2023/11/21 13:23:00;;;;;;;3.23;2.53;;;;;;;;;;5081453;28;20029;-55
2023/11/21 13:25:28;;;;;;;5.28;3.13;;;;;;;;;;5072348;28;20119;-55
2023/11/21 13:27:55;;;;;;;5.13;2.93;;;;;;;;;;5072617;28;20024;-55
2023/11/21 13:30:26;;;;;;;4.93;2.90;;;;;;;;;;5073929;28;20024;-55
2023/11/21 13:32:56;;;;;;;6.30;3.20;;;;;;;;;;5090347;28;20081;-55
2023/11/21 13:35:37;;;;;;;4.07;2.67;;;;;;;;;;5087564;28;20024;-55
2023/11/21 13:38:16;;;;;;;6.83;3.03;;;;;;;;;;5087028;28;20074;-55
2023/11/21 13:40:48;;;;;;;5.40;4.17;;;;;;;;;;5087168;28;20588;-55
2023/11/21 13:43:18;;;;;;;5.17;3.53;;;;;;;;;;5090039;28;20497;-55
2023/11/21 13:45:45;;;;;;;4.57;3.37;;;;;;;;;;5073649;28;20032;-55
2023/11/21 13:48:25;;;;;;;4.97;3.37;;;;;;;;;;5072042;28;20416;-55
2023/11/21 13:53:38;;;;;;;4.68;3.15;;;;;;;;;;5092000;28;20118;-55
2023/11/21 13:56:05;;;;;;;28.23;3.30;;;;;;;;;;5087460;28;20680;-55
2023/11/21 13:58:44;;;;;;;10.50;3.27;;;;;;;;;;5087236;28;20103;-55
2023/11/21 14:04:19;;;;;;;4.80;2.97;;;;;;;;;;5084628;28;20055;-55
2023/11/21 14:06:51;;;;;;;5.03;2.90;;;;;;;;;;5091442;28;20551;-56
2023/11/21 14:09:35;;;;;;;3.67;2.77;;;;;;;;;;5092214;28;20035;-55
2023/11/21 14:12:06;;;;;;;3.22;2.35;;;;;;;;;;5092001;28;20036;-55
2023/11/21 14:14:33;;;;;;;8.20;3.40;;;;;;;;;;5091930;28;20530;-55
2023/11/21 14:17:02;;;;;;;5.87;2.93;;;;;;;;;;5089088;28;20031;-55
2023/11/21 14:19:32;;;;;;;4.33;2.93;;;;;;;;;;5066831;28;20057;-55
2023/11/21 14:21:58;;;;;;;2.83;2.17;;;;;;;;;;5066839;28;20465;-55
2023/11/21 14:24:25;;;;;;;3.47;2.37;;;;;;;;;;5066431;28;20041;-56
2023/11/21 14:26:52;;;;;;;5.80;3.03;;;;;;;;;;5067030;28;20024;-56
2023/11/21 14:29:20;;;;;;;4.60;3.27;;;;;;;;;;5078660;28;20069;-56
2023/11/21 14:31:46;;;;;;;6.97;2.90;;;;;;;;;;5080272;28;20055;-56
2023/11/21 14:34:14;;;;;;;3.80;2.40;;;;;;;;;;5071566;28;20150;-56
2023/11/21 14:36:43;;;;;;;4.33;2.93;;;;;;;;;;5072031;28;20032;-56
2023/11/21 14:39:20;;;;;;;3.57;2.27;;;;;;;;;;5053131;28;20118;-56
2023/11/21 14:41:47;;;;;;;3.13;2.47;;;;;;;;;;5068163;28;20399;-56
2023/11/21 14:44:15;;;;;;;3.13;2.20;;;;;;;;;;5086409;28;20043;-56
2023/11/21 14:46:46;;;;;;;3.80;2.63;;;;;;;;;;5090362;28;20040;-56
2023/11/21 14:49:19;;;;;;;6.23;2.37;;;;;;;;;;5090037;28;20047;-55
2023/11/21 14:52:03;;;;;;;3.27;2.20;;;;;;;;;;5092100;28;20039;-56
2023/11/21 14:54:45;;;;;;;2.57;1.57;;;;;;;;;;5082104;28;20055;-56